| time (UTC) | temp C | wind direction | speed KPH | gust KPH | rain 1hr cm | rain 24hr cm | rain mn cm | humidity % | barometer mb |
| 20260508003014 | 24 | 130 | 3.2 | 8.0 | 0.00 | 3.73 | 3.73 | 87 | 1018.2 |
| 20260508002510 | 24 | 129 | 3.2 | 8.0 | 0.00 | 3.73 | 3.73 | 87 | 1018.1 |
| 20260508002015 | 24 | 142 | 1.6 | 11.3 | 0.00 | 3.73 | 3.73 | 87 | 1018.0 |
| 20260508001514 | 24 | 146 | 4.8 | 11.3 | 0.00 | 3.73 | 3.73 | 87 | 1017.9 |
| 20260508001110 | 24 | 147 | 3.2 | 8.0 | 0.00 | 3.73 | 3.73 | 87 | 1017.9 |
| 20260508000510 | 24 | 107 | 3.2 | 9.7 | 0.00 | 3.73 | 3.73 | 87 | 1017.9 |
| 20260508000010 | 24 | 111 | 1.6 | 6.4 | 0.00 | 3.73 | 3.73 | 87 | 1017.8 |
| 20260507235514 | 24 | 111 | 1.6 | 4.8 | 0.00 | 3.73 | 3.73 | 88 | 1017.8 |
| 20260507235010 | 24 | 111 | 0.0 | 6.4 | 0.00 | 3.73 | 3.73 | 88 | 1017.8 |
| 20260507234508 | 25 | 111 | 0.0 | 6.4 | 0.00 | 3.73 | 3.73 | 88 | 1017.7 |
| 20260507234009 | 25 | 110 | 0.0 | 4.8 | 0.00 | 3.73 | 3.73 | 88 | 1017.6 |
| 20260507233508 | 25 | 110 | 0.0 | 9.7 | 0.00 | 3.73 | 3.73 | 88 | 1017.6 |
| 20260507233009 | 25 | 109 | 3.2 | 9.7 | 0.00 | 3.73 | 3.73 | 88 | 1017.4 |
| 20260507232509 | 25 | 55 | 0.0 | 8.0 | 0.00 | 3.73 | 3.73 | 88 | 1017.3 |
| 20260507232009 | 25 | 75 | 1.6 | 8.0 | 0.00 | 3.73 | 3.73 | 88 | 1017.3 |
| 20260507231508 | 25 | 109 | 1.6 | 9.7 | 0.00 | 3.73 | 3.73 | 88 | 1017.2 |
| 20260507231008 | 25 | 92 | 3.2 | 9.7 | 0.00 | 3.73 | 3.73 | 88 | 1017.2 |
| 20260507230508 | 25 | 95 | 1.6 | 9.7 | 0.00 | 3.73 | 3.73 | 88 | 1017.0 |
| 20260507230008 | 25 | 117 | 3.2 | 11.3 | 0.00 | 3.73 | 3.73 | 88 | 1016.9 |
| 20260507225507 | 25 | 98 | 1.6 | 11.3 | 0.00 | 3.73 | 3.73 | 88 | 1017.0 |
| 20260507225007 | 25 | 105 | 3.2 | 14.5 | 0.00 | 3.73 | 3.73 | 88 | 1016.9 |
| 20260507224510 | 25 | 121 | 3.2 | 14.5 | 0.00 | 3.73 | 3.73 | 89 | 1017.0 |
| 20260507224006 | 25 | 98 | 3.2 | 9.7 | 0.00 | 3.73 | 3.73 | 89 | 1016.9 |
| 20260507223507 | 25 | 90 | 1.6 | 11.3 | 0.00 | 3.73 | 3.73 | 89 | 1016.9 |
| 20260507223007 | 25 | 129 | 3.2 | 9.7 | 0.00 | 3.73 | 3.73 | 90 | 1016.9 |
| 20260507222506 | 25 | 105 | 0.0 | 4.8 | 0.00 | 3.73 | 3.73 | 90 | 1017.0 |
| 20260507222008 | 25 | 105 | 0.0 | 4.8 | 0.00 | 3.73 | 3.73 | 90 | 1017.1 |
| 20260507221506 | 25 | 105 | 0.0 | 1.6 | 0.00 | 3.73 | 3.73 | 90 | 1017.1 |
| 20260507221007 | 25 | 105 | 0.0 | 0.0 | 0.00 | 3.73 | 3.73 | 90 | 1017.1 |
| 20260507220509 | 25 | 105 | 0.0 | 6.4 | 0.00 | 3.73 | 3.73 | 89 | 1016.9 |
| 20260507220006 | 25 | 105 | 1.6 | 6.4 | 0.03 | 3.73 | 3.73 | 89 | 1016.9 |
| 20260507215507 | 25 | 106 | 0.0 | 6.4 | 0.03 | 3.73 | 3.73 | 89 | 1016.8 |
| 20260507215007 | 25 | 106 | 0.0 | 6.4 | 0.05 | 3.73 | 3.73 | 89 | 1016.8 |
| 20260507214505 | 25 | 106 | 0.0 | 0.0 | 0.05 | 3.73 | 3.73 | 89 | 1016.7 |
| 20260507214005 | 25 | 106 | 0.0 | 0.0 | 0.08 | 3.73 | 3.73 | 89 | 1016.6 |
| 20260507213505 | 25 | 106 | 0.0 | 4.8 | 0.10 | 3.73 | 3.73 | 89 | 1016.5 |
| 20260507213016 | 25 | 105 | 1.6 | 11.3 | 0.43 | 3.73 | 3.73 | 89 | 1016.3 |
| 20260507212504 | 25 | 128 | 1.6 | 11.3 | 0.71 | 3.73 | 3.73 | 90 | 1016.4 |
| 20260507212004 | 25 | 128 | 0.0 | 0.0 | 0.91 | 3.73 | 3.73 | 89 | 1016.4 |
| 20260507211504 | 25 | 128 | 0.0 | 11.3 | 1.22 | 3.73 | 3.73 | 88 | 1016.3 |
| 20260507211004 | 25 | 128 | 0.0 | 11.3 | 1.32 | 3.73 | 3.73 | 88 | 1016.3 |
| 20260507210507 | 25 | 205 | 1.6 | 6.4 | 1.45 | 3.73 | 3.73 | 88 | 1016.3 |
| 20260507210014 | 25 | 198 | 0.0 | 6.4 | 1.52 | 3.71 | 3.71 | 88 | 1016.3 |
| 20260507205503 | 24 | 198 | 1.6 | 8.0 | 1.60 | 3.71 | 3.71 | 89 | 1016.4 |
| 20260507205004 | 24 | 189 | 1.6 | 11.3 | 1.96 | 3.68 | 3.68 | 89 | 1016.4 |
| 20260507204504 | 24 | 257 | 3.2 | 11.3 | 2.18 | 3.68 | 3.68 | 90 | 1016.2 |
| 20260507204003 | 24 | 218 | 3.2 | 9.7 | 2.69 | 3.66 | 3.66 | 89 | 1016.2 |
| 20260507203502 | 24 | 135 | 0.0 | 16.1 | 3.23 | 3.63 | 3.63 | 89 | 1016.2 |
| 20260507203002 | 24 | 192 | 8.0 | 16.1 | 2.87 | 3.23 | 3.23 | 89 | 1016.5 |
| 20260507202501 | 24 | 164 | 3.2 | 16.1 | 2.67 | 2.97 | 2.97 | 89 | 1016.4 |
| 20260507202002 | 24 | 134 | 8.0 | 16.1 | 2.59 | 2.79 | 2.79 | 89 | 1016.5 |
| 20260507201503 | 24 | 119 | 1.6 | 11.3 | 2.39 | 2.49 | 2.49 | 89 | 1016.4 |
| 20260507201001 | 24 | 129 | 1.6 | 12.9 | 2.29 | 2.39 | 2.39 | 88 | 1016.4 |
| 20260507200601 | 24 | 123 | 4.8 | 12.9 | 2.16 | 2.26 | 2.26 | 89 | 1016.6 |
| 20260507200110 | 23 | 107 | 1.6 | 19.3 | 2.08 | 2.18 | 2.18 | 89 | 1016.5 |
| 20260507195559 | 23 | 54 | 1.6 | 20.9 | 2.01 | 2.11 | 2.11 | 87 | 1016.5 |
| 20260507195059 | 24 | 96 | 6.4 | 16.1 | 1.65 | 1.75 | 1.75 | 89 | 1016.7 |
| 20260507194700 | 23 | 76 | 8.0 | 30.6 | 1.45 | 1.55 | 1.55 | 87 | 1016.6 |
| 20260507194102 | 25 | 140 | 9.7 | 30.6 | 0.97 | 1.02 | 1.02 | 84 | 1016.6 |
| 20260507193557 | 25 | 152 | 8.0 | 19.3 | 0.41 | 0.41 | 0.41 | 86 | 1016.6 |
| 20260507193128 | 25 | 61 | 4.8 | 9.7 | 0.33 | 0.33 | 0.33 | 87 | 1016.7 |
| 20260507192555 | 26 | 115 | 1.6 | 11.3 | 0.30 | 0.30 | 0.30 | 87 | 1016.7 |
| 20260507192100 | 26 | 84 | 4.8 | 11.3 | 0.20 | 0.20 | 0.20 | 85 | 1016.6 |
| 20260507191600 | 26 | 119 | 3.2 | 11.3 | 0.10 | 0.10 | 0.10 | 85 | 1016.6 |
| 20260507191058 | 26 | 104 | 3.2 | 9.7 | 0.10 | 0.10 | 0.10 | 86 | 1016.6 |
| 20260507190555 | 26 | 190 | 0.0 | 8.0 | 0.10 | 0.10 | 0.10 | 87 | 1016.6 |
| 20260507190054 | 25 | 185 | 3.2 | 12.9 | 0.10 | 0.10 | 0.10 | 86 | 1016.7 |
| 20260507185553 | 26 | 118 | 4.8 | 14.5 | 0.10 | 0.10 | 0.10 | 86 | 1016.8 |
| 20260507185053 | 26 | 118 | 4.8 | 19.3 | 0.10 | 0.10 | 0.10 | 86 | 1016.9 |
| 20260507184553 | 26 | 114 | 6.4 | 19.3 | 0.08 | 0.08 | 0.08 | 85 | 1016.9 |
| 20260507184057 | 26 | 121 | 6.4 | 24.1 | 0.05 | 0.05 | 0.05 | 84 | 1016.9 |
| 20260507183552 | 27 | 132 | 12.9 | 24.1 | 0.00 | 0.00 | 0.00 | 82 | 1016.9 |
| 20260507183100 | 27 | 88 | 8.0 | 24.1 | 0.00 | 0.00 | 0.00 | 81 | 1016.7 |
| 20260507182553 | 27 | 119 | 9.7 | 20.9 | 0.00 | 0.00 | 0.00 | 80 | 1016.8 |
| 20260507182053 | 27 | 142 | 3.2 | 16.1 | 0.00 | 0.00 | 0.00 | 79 | 1017.0 |
| 20260507181552 | 28 | 84 | 4.8 | 16.1 | 0.00 | 0.00 | 0.00 | 78 | 1016.9 |
| 20260507181051 | 27 | 61 | 1.6 | 9.7 | 0.00 | 0.00 | 0.00 | 78 | 1017.0 |
| 20260507180551 | 27 | 59 | 3.2 | 16.1 | 0.00 | 0.00 | 0.00 | 78 | 1017.0 |
| 20260507180049 | 28 | 101 | 4.8 | 16.1 | 0.00 | 0.00 | 0.00 | 76 | 1017.1 |
| 20260507175555 | 29 | 52 | 9.7 | 16.1 | 0.00 | 0.00 | 0.00 | 73 | 1017.3 |
| 20260507175048 | 28 | 134 | 8.0 | 16.1 | 0.00 | 0.00 | 0.00 | 72 | 1017.3 |
| 20260507174549 | 28 | 132 | 4.8 | 11.3 | 0.00 | 0.00 | 0.00 | 71 | 1017.4 |
| 20260507174047 | 29 | 69 | 4.8 | 12.9 | 0.00 | 0.00 | 0.00 | 69 | 1017.4 |
| 20260507173550 | 30 | 74 | 6.4 | 16.1 | 0.00 | 0.00 | 0.00 | 67 | 1017.6 |
| 20260507173115 | 30 | 109 | 6.4 | 14.5 | 0.00 | 0.00 | 0.00 | 66 | 1017.5 |
| 20260507172548 | 30 | 96 | 4.8 | 9.7 | 0.00 | 0.00 | 0.00 | 65 | 1017.7 |
| 20260507172046 | 31 | 82 | 1.6 | 14.5 | 0.00 | 0.00 | 0.00 | 66 | 1017.6 |
| 20260507171548 | 30 | 129 | 3.2 | 16.1 | 0.00 | 0.00 | 0.00 | 65 | 1017.7 |
| 20260507171046 | 31 | 113 | 3.2 | 16.1 | 0.00 | 0.00 | 0.00 | 65 | 1017.8 |
| 20260507170546 | 30 | 106 | 3.2 | 16.1 | 0.00 | 0.00 | 0.00 | 64 | 1017.9 |
| 20260507170049 | 30 | 116 | 6.4 | 16.1 | 0.00 | 0.00 | 0.00 | 66 | 1017.9 |
| 20260507165544 | 30 | 123 | 8.0 | 16.1 | 0.00 | 0.00 | 0.00 | 64 | 1018.0 |
| 20260507165042 | 30 | 52 | 4.8 | 20.9 | 0.00 | 0.00 | 0.00 | 66 | 1018.1 |
| 20260507164644 | 30 | 117 | 9.7 | 20.9 | 0.00 | 0.00 | 0.00 | 66 | 1018.1 |
| 20260507164042 | 30 | 116 | 3.2 | 24.1 | 0.00 | 0.00 | 0.00 | 67 | 1018.2 |
| 20260507163542 | 30 | 80 | 6.4 | 14.5 | 0.00 | 0.00 | 0.00 | 65 | 1018.2 |
| 20260507163042 | 30 | 101 | 3.2 | 14.5 | 0.00 | 0.00 | 0.00 | 67 | 1018.3 |
| 20260507162541 | 30 | 126 | 3.2 | 14.5 | 0.00 | 0.00 | 0.00 | 67 | 1018.3 |
| 20260507162040 | 30 | 222 | 4.8 | 16.1 | 0.00 | 0.00 | 0.00 | 66 | 1018.4 |
| 20260507161542 | 29 | 111 | 6.4 | 17.7 | 0.00 | 0.00 | 0.00 | 68 | 1018.6 |
| 20260507161039 | 29 | 113 | 6.4 | 16.1 | 0.00 | 0.00 | 0.00 | 68 | 1018.5 |
| 20260507160539 | 30 | 82 | 4.8 | 12.9 | 0.00 | 0.00 | 0.00 | 68 | 1018.5 |
| 20260507160058 | 28 | 113 | 6.4 | 17.7 | 0.00 | 0.00 | 0.00 | 69 | 1018.5 |
| 20260507155539 | 29 | 39 | 3.2 | 17.7 | 0.00 | 0.00 | 0.00 | 68 | 1018.6 |
| 20260507155040 | 30 | 45 | 4.8 | 16.1 | 0.00 | 0.00 | 0.00 | 68 | 1018.6 |
| 20260507154538 | 29 | 57 | 6.4 | 16.1 | 0.00 | 0.00 | 0.00 | 68 | 1018.6 |
| 20260507154037 | 29 | 116 | 3.2 | 12.9 | 0.00 | 0.00 | 0.00 | 69 | 1018.7 |
| 20260507153537 | 29 | 86 | 6.4 | 12.9 | 0.00 | 0.00 | 0.00 | 69 | 1018.8 |
| 20260507153037 | 28 | 95 | 4.8 | 11.3 | 0.00 | 0.00 | 0.00 | 70 | 1018.9 |
| 20260507152537 | 28 | 49 | 0.0 | 12.9 | 0.00 | 0.00 | 0.00 | 72 | 1018.8 |
| 20260507152037 | 29 | 130 | 3.2 | 14.5 | 0.00 | 0.00 | 0.00 | 70 | 1018.9 |
| 20260507151537 | 29 | 124 | 4.8 | 14.5 | 0.00 | 0.00 | 0.00 | 70 | 1019.0 |
| 20260507151037 | 29 | 49 | 1.6 | 16.1 | 0.00 | 0.00 | 0.00 | 69 | 1019.0 |
| 20260507150540 | 29 | 130 | 3.2 | 16.1 | 0.00 | 0.00 | 0.00 | 69 | 1019.1 |
| 20260507150035 | 28 | 123 | 3.2 | 11.3 | 0.00 | 0.00 | 0.00 | 70 | 1019.1 |
| 20260507145536 | 28 | 107 | 4.8 | 11.3 | 0.00 | 0.00 | 0.00 | 71 | 1019.0 |
| 20260507145035 | 28 | 52 | 0.0 | 9.7 | 0.00 | 0.00 | 0.00 | 71 | 1019.0 |
| 20260507144544 | 28 | 53 | 3.2 | 9.7 | 0.00 | 0.00 | 0.00 | 71 | 1019.2 |
| 20260507144036 | 28 | 69 | 1.6 | 11.3 | 0.00 | 0.00 | 0.00 | 72 | 1019.1 |
| 20260507143535 | 28 | 77 | 3.2 | 11.3 | 0.00 | 0.00 | 0.00 | 71 | 1019.2 |
| 20260507143035 | 28 | 94 | 1.6 | 11.3 | 0.00 | 0.00 | 0.00 | 70 | 1019.2 |
| 20260507142534 | 28 | 39 | 3.2 | 11.3 | 0.00 | 0.00 | 0.00 | 71 | 1019.3 |
| 20260507142036 | 29 | 102 | 0.0 | 12.9 | 0.00 | 0.00 | 0.00 | 69 | 1019.3 |
| 20260507141533 | 29 | 120 | 4.8 | 12.9 | 0.00 | 0.00 | 0.00 | 69 | 1019.2 |
| 20260507141032 | 29 | 97 | 3.2 | 11.3 | 0.00 | 0.00 | 0.00 | 71 | 1019.2 |
| 20260507140531 | 28 | 62 | 3.2 | 9.7 | 0.00 | 0.00 | 0.00 | 71 | 1019.2 |
| 20260507140033 | 28 | 132 | 1.6 | 9.7 | 0.00 | 0.00 | 0.00 | 72 | 1019.2 |
| 20260507135529 | 27 | 137 | 3.2 | 9.7 | 0.00 | 0.00 | 0.00 | 73 | 1019.4 |
| 20260507135029 | 27 | 86 | 1.6 | 9.7 | 0.00 | 0.00 | 0.00 | 74 | 1019.3 |
| 20260507134529 | 27 | 275 | 1.6 | 8.0 | 0.00 | 0.00 | 0.00 | 73 | 1019.4 |
| 20260507134032 | 28 | 143 | 1.6 | 8.0 | 0.00 | 0.00 | 0.00 | 71 | 1019.3 |
| 20260507133527 | 28 | 130 | 0.0 | 6.4 | 0.00 | 0.00 | 0.00 | 74 | 1019.2 |
| 20260507133027 | 27 | 130 | 0.0 | 3.2 | 0.00 | 0.00 | 0.00 | 74 | 1019.2 |
| 20260507132526 | 27 | 130 | 0.0 | 6.4 | 0.00 | 0.00 | 0.00 | 74 | 1019.3 |
| 20260507132126 | 27 | 130 | 0.0 | 6.4 | 0.00 | 0.00 | 0.00 | 74 | 1019.1 |
| 20260507131530 | 27 | 137 | 1.6 | 8.0 | 0.00 | 0.00 | 0.00 | 73 | 1019.1 |
| 20260507131027 | 27 | 108 | 1.6 | 12.9 | 0.00 | 0.00 | 0.00 | 73 | 1019.1 |
| 20260507130100 | 27 | 138 | 3.2 | 8.0 | 0.00 | 0.00 | 0.00 | 73 | 1018.9 |
| 20260507125600 | 28 | 61 | 1.6 | 12.9 | 0.00 | 0.00 | 0.00 | 73 | 1018.9 |
| 20260507125100 | 27 | 98 | 4.8 | 12.9 | 0.00 | 0.00 | 0.00 | 73 | 1019.0 |
| 20260507124602 | 27 | 127 | 1.6 | 9.7 | 0.00 | 0.00 | 0.00 | 76 | 1019.0 |
| 20260507124056 | 27 | 79 | 4.8 | 12.9 | 0.00 | 0.00 | 0.00 | 75 | 1018.8 |
| 20260507123556 | 27 | 101 | 4.8 | 12.9 | 0.00 | 0.00 | 0.00 | 77 | 1018.9 |
| 20260507123055 | 27 | 109 | 1.6 | 6.4 | 0.00 | 0.00 | 0.00 | 77 | 1018.7 |
| 20260507122553 | 27 | 107 | 0.0 | 6.4 | 0.00 | 0.00 | 0.00 | 79 | 1018.9 |
| 20260507122052 | 27 | 107 | 1.6 | 8.0 | 0.00 | 0.00 | 0.00 | 80 | 1018.8 |
| 20260507121551 | 26 | 103 | 4.8 | 9.7 | 0.00 | 0.00 | 0.00 | 79 | 1018.7 |
| 20260507121050 | 26 | 34 | 0.0 | 12.9 | 0.00 | 0.00 | 0.00 | 81 | 1018.6 |
| 20260507120549 | 26 | 107 | 1.6 | 9.7 | 0.00 | 0.00 | 0.00 | 81 | 1018.5 |
| 20260507120048 | 26 | 15 | 0.0 | 9.7 | 0.00 | 0.00 | 0.00 | 82 | 1018.4 |
| 20260507115547 | 26 | 34 | 4.8 | 9.7 | 0.00 | 0.00 | 0.00 | 81 | 1018.5 |
| 20260507115046 | 26 | 96 | 1.6 | 9.7 | 0.00 | 0.00 | 0.00 | 82 | 1018.5 |
| 20260507114552 | 26 | 57 | 1.6 | 6.4 | 0.00 | 0.00 | 0.00 | 83 | 1018.3 |
| 20260507114047 | 25 | 91 | 1.6 | 6.4 | 0.00 | 0.00 | 0.00 | 84 | 1018.4 |
| 20260507113540 | 25 | 90 | 1.6 | 6.4 | 0.00 | 0.00 | 0.00 | 86 | 1018.3 |
| 20260507113040 | 25 | 118 | 1.6 | 9.7 | 0.00 | 0.00 | 0.00 | 86 | 1018.2 |
| 20260507112539 | 25 | 217 | 1.6 | 9.7 | 0.00 | 0.00 | 0.00 | 87 | 1018.2 |
| 20260507112039 | 25 | 177 | 0.0 | 6.4 | 0.00 | 0.00 | 0.00 | 87 | 1018.2 |
| 20260507111550 | 25 | 177 | 0.0 | 8.0 | 0.00 | 0.00 | 0.00 | 88 | 1018.2 |
| 20260507111036 | 25 | 317 | 0.0 | 8.0 | 0.00 | 0.00 | 0.00 | 89 | 1018.2 |
| 20260507110536 | 24 | 184 | 0.0 | 1.6 | 0.00 | 0.00 | 0.00 | 89 | 1018.2 |
| 20260507110035 | 24 | 185 | 0.0 | 3.2 | 0.00 | 0.00 | 0.00 | 89 | 1018.3 |
| 20260507105533 | 24 | 188 | 0.0 | 6.4 | 0.00 | 0.00 | 0.00 | 90 | 1018.1 |
| 20260507105033 | 24 | 244 | 0.0 | 6.4 | 0.00 | 0.00 | 0.00 | 90 | 1018.3 |
| 20260507104531 | 23 | 211 | 0.0 | 0.0 | 0.00 | 0.00 | 0.00 | 91 | 1018.2 |
| 20260507104031 | 23 | 211 | 0.0 | 0.0 | 0.00 | 0.00 | 0.00 | 91 | 1018.1 |
| 20260507103528 | 23 | 211 | 0.0 | 0.0 | 0.00 | 0.00 | 0.00 | 91 | 1018.1 |
| 20260507103027 | 23 | 211 | 0.0 | 0.0 | 0.00 | 0.00 | 0.00 | 91 | 1018.0 |
| 20260507102525 | 23 | 210 | 0.0 | 0.0 | 0.00 | 0.00 | 0.00 | 91 | 1018.1 |
| 20260507102024 | 23 | 212 | 0.0 | 0.0 | 0.00 | 0.00 | 0.00 | 91 | 1018.1 |
| 20260507101522 | 23 | 212 | 0.0 | 0.0 | 0.00 | 0.00 | 0.00 | 91 | 1017.9 |
| 20260507101023 | 23 | 212 | 0.0 | 0.0 | 0.00 | 0.00 | 0.00 | 91 | 1017.9 |
| 20260507100521 | 23 | 211 | 0.0 | 0.0 | 0.00 | 0.00 | 0.00 | 91 | 1017.9 |
| 20260507100018 | 23 | 214 | 0.0 | 0.0 | 0.00 | 0.00 | 0.00 | 90 | 1017.8 |
| 20260507095517 | 23 | 214 | 0.0 | 0.0 | 0.00 | 0.00 | 0.00 | 90 | 1017.6 |
| 20260507095017 | 23 | 213 | 0.0 | 0.0 | 0.00 | 0.00 | 0.00 | 90 | 1017.6 |
| 20260507094520 | 23 | 214 | 0.0 | 0.0 | 0.00 | 0.00 | 0.00 | 90 | 1017.6 |
| 20260507094016 | 23 | 214 | 0.0 | 0.0 | 0.00 | 0.00 | 0.00 | 90 | 1017.6 |
| 20260507093516 | 23 | 214 | 0.0 | 0.0 | 0.00 | 0.00 | 0.00 | 90 | 1017.6 |
| 20260507093016 | 23 | 214 | 0.0 | 0.0 | 0.00 | 0.00 | 0.00 | 90 | 1017.6 |
| 20260507092517 | 23 | 214 | 0.0 | 0.0 | 0.00 | 0.00 | 0.00 | 90 | 1017.7 |
| 20260507092016 | 23 | 214 | 0.0 | 3.2 | 0.00 | 0.00 | 0.00 | 90 | 1017.6 |
| 20260507091515 | 23 | 214 | 0.0 | 3.2 | 0.00 | 0.00 | 0.00 | 90 | 1017.6 |
| 20260507091014 | 23 | 211 | 0.0 | 6.4 | 0.00 | 0.00 | 0.00 | 90 | 1017.7 |
| 20260507090515 | 23 | 211 | 0.0 | 6.4 | 0.00 | 0.00 | 0.00 | 90 | 1017.7 |
| 20260507090015 | 23 | 186 | 0.0 | 6.4 | 0.00 | 0.00 | 0.00 | 90 | 1017.6 |
| 20260507085514 | 23 | 186 | 0.0 | 6.4 | 0.00 | 0.00 | 0.00 | 90 | 1017.7 |
| 20260507085014 | 23 | 177 | 0.0 | 1.6 | 0.00 | 0.00 | 0.00 | 90 | 1017.7 |
| 20260507084515 | 23 | 177 | 0.0 | 1.6 | 0.00 | 0.00 | 0.00 | 90 | 1017.6 |
| 20260507084016 | 23 | 177 | 0.0 | 0.0 | 0.00 | 0.00 | 0.00 | 90 | 1017.7 |
| 20260507083513 | 23 | 177 | 0.0 | 0.0 | 0.00 | 0.00 | 0.00 | 90 | 1017.6 |
| 20260507083014 | 23 | 178 | 0.0 | 0.0 | 0.00 | 0.00 | 0.00 | 90 | 1017.7 |
| 20260507082512 | 23 | 178 | 0.0 | 0.0 | 0.00 | 0.00 | 0.00 | 90 | 1017.5 |
| 20260507082012 | 23 | 178 | 0.0 | 0.0 | 0.00 | 0.00 | 0.00 | 89 | 1017.6 |
| 20260507081513 | 23 | 178 | 0.0 | 0.0 | 0.00 | 0.00 | 0.00 | 89 | 1017.5 |
| 20260507081012 | 23 | 178 | 0.0 | 0.0 | 0.00 | 0.00 | 0.00 | 89 | 1017.5 |
| 20260507080518 | 23 | 178 | 0.0 | 0.0 | 0.00 | 0.00 | 0.00 | 89 | 1017.4 |
| 20260507080013 | 23 | 178 | 0.0 | 0.0 | 0.00 | 0.00 | 0.00 | 89 | 1017.4 |
| 20260507075510 | 23 | 178 | 0.0 | 0.0 | 0.00 | 0.00 | 0.00 | 89 | 1017.4 |
| 20260507075010 | 23 | 178 | 0.0 | 0.0 | 0.00 | 0.00 | 0.00 | 90 | 1017.5 |
| 20260507074510 | 23 | 178 | 0.0 | 3.2 | 0.00 | 0.00 | 0.00 | 90 | 1017.5 |
| 20260507074013 | 23 | 178 | 1.6 | 6.4 | 0.00 | 0.00 | 0.00 | 90 | 1017.5 |
| 20260507073508 | 23 | 177 | 1.6 | 6.4 | 0.00 | 0.00 | 0.00 | 89 | 1017.6 |
| 20260507073008 | 23 | 171 | 0.0 | 4.8 | 0.00 | 0.00 | 0.00 | 89 | 1017.7 |
| 20260507072508 | 23 | 171 | 0.0 | 0.0 | 0.00 | 0.00 | 0.00 | 89 | 1017.7 |
| 20260507072007 | 23 | 171 | 0.0 | 0.0 | 0.00 | 0.00 | 0.00 | 89 | 1017.6 |
| 20260507071507 | 23 | 171 | 0.0 | 1.6 | 0.00 | 0.00 | 0.00 | 89 | 1017.6 |
| 20260507071006 | 23 | 171 | 0.0 | 1.6 | 0.00 | 0.00 | 0.00 | 89 | 1017.7 |
| 20260507070507 | 23 | 171 | 0.0 | 3.2 | 0.00 | 0.00 | 0.00 | 89 | 1017.8 |
| 20260507070009 | 23 | 171 | 0.0 | 3.2 | 0.00 | 0.00 | 0.00 | 89 | 1017.7 |
| 20260507065506 | 23 | 171 | 0.0 | 4.8 | 0.00 | 0.00 | 0.00 | 89 | 1017.8 |
| 20260507065003 | 23 | 171 | 1.6 | 6.4 | 0.00 | 0.00 | 0.00 | 89 | 1017.9 |
| 20260507064503 | 23 | 163 | 0.0 | 0.0 | 0.00 | 0.00 | 0.00 | 89 | 1018.0 |
| 20260507064003 | 23 | 163 | 0.0 | 0.0 | 0.00 | 0.00 | 0.00 | 89 | 1018.0 |
| 20260507063502 | 23 | 163 | 0.0 | 0.0 | 0.00 | 0.00 | 0.00 | 89 | 1018.1 |
| 20260507063002 | 23 | 163 | 0.0 | 0.0 | 0.00 | 0.00 | 0.00 | 88 | 1018.2 |
| 20260507062502 | 24 | 163 | 0.0 | 0.0 | 0.00 | 0.00 | 0.00 | 88 | 1018.1 |
| 20260507062101 | 24 | 163 | 0.0 | 0.0 | 0.00 | 0.00 | 0.00 | 88 | 1018.2 |
| 20260507061601 | 24 | 163 | 0.0 | 0.0 | 0.00 | 0.00 | 0.00 | 88 | 1018.2 |
| 20260507061100 | 24 | 163 | 0.0 | 0.0 | 0.00 | 0.00 | 0.00 | 88 | 1018.2 |
| 20260507060601 | 24 | 163 | 0.0 | 0.0 | 0.00 | 0.00 | 0.00 | 88 | 1018.3 |
| 20260507055557 | 24 | 163 | 0.0 | 0.0 | 0.00 | 0.00 | 0.00 | 88 | 1018.5 |
| 20260507055057 | 24 | 163 | 0.0 | 0.0 | 0.00 | 0.00 | 0.00 | 88 | 1018.5 |
| 20260507054607 | 24 | 163 | 0.0 | 0.0 | 0.00 | 0.00 | 0.00 | 88 | 1018.5 |
| 20260507054055 | 24 | 163 | 0.0 | 3.2 | 0.00 | 0.00 | 0.00 | 88 | 1018.5 |
| 20260507053555 | 24 | 163 | 0.0 | 3.2 | 0.00 | 0.00 | 0.00 | 88 | 1018.6 |
| 20260507053055 | 24 | 163 | 0.0 | 3.2 | 0.00 | 0.00 | 0.00 | 88 | 1018.6 |
| 20260507052553 | 24 | 244 | 0.0 | 3.2 | 0.00 | 0.00 | 0.00 | 88 | 1018.7 |
| 20260507052053 | 24 | 244 | 0.0 | 3.2 | 0.00 | 0.00 | 0.00 | 88 | 1018.8 |
| 20260507051555 | 24 | 246 | 0.0 | 0.0 | 0.00 | 0.00 | 0.00 | 88 | 1018.9 |
| 20260507051052 | 24 | 246 | 0.0 | 3.2 | 0.00 | 0.00 | 0.00 | 88 | 1018.9 |
| 20260507050551 | 24 | 246 | 0.0 | 6.4 | 0.00 | 0.00 | 0.00 | 88 | 1019.1 |
| 20260507050049 | 24 | 248 | 1.6 | 6.4 | 0.00 | 0.00 | 0.00 | 87 | 1019.2 |
| 20260507045552 | 24 | 110 | 0.0 | 0.0 | 0.00 | 0.00 | 0.00 | 87 | 1019.2 |
| 20260507045049 | 24 | 110 | 0.0 | 0.0 | 0.00 | 0.00 | 0.00 | 87 | 1019.4 |
| 20260507044548 | 24 | 110 | 0.0 | 0.0 | 0.00 | 0.00 | 0.00 | 87 | 1019.5 |
| 20260507044047 | 24 | 110 | 0.0 | 0.0 | 0.00 | 0.00 | 0.00 | 87 | 1019.6 |
| 20260507043547 | 24 | 110 | 0.0 | 0.0 | 0.00 | 0.00 | 0.00 | 87 | 1019.6 |
| 20260507043047 | 25 | 110 | 0.0 | 0.0 | 0.00 | 0.00 | 0.00 | 87 | 1019.7 |
| 20260507042546 | 25 | 110 | 0.0 | 0.0 | 0.00 | 0.00 | 0.00 | 87 | 1019.7 |
| 20260507042045 | 25 | 110 | 0.0 | 0.0 | 0.00 | 0.00 | 0.00 | 87 | 1019.8 |
| 20260507041554 | 25 | 109 | 0.0 | 0.0 | 0.00 | 0.00 | 0.00 | 87 | 1019.9 |
| 20260507041045 | 25 | 109 | 0.0 | 0.0 | 0.00 | 0.00 | 0.00 | 87 | 1019.8 |
| 20260507040544 | 25 | 109 | 0.0 | 0.0 | 0.00 | 0.00 | 0.00 | 87 | 1019.9 |
| 20260507040043 | 25 | 109 | 0.0 | 0.0 | 0.00 | 0.00 | 0.00 | 87 | 1019.8 |
| 20260507035545 | 25 | 109 | 0.0 | 0.0 | 0.00 | 0.00 | 0.00 | 86 | 1019.9 |
| 20260507035044 | 25 | 109 | 0.0 | 0.0 | 0.00 | 0.00 | 0.00 | 86 | 1019.9 |
| 20260507034544 | 25 | 109 | 0.0 | 0.0 | 0.00 | 0.00 | 0.00 | 86 | 1020.1 |
| 20260507034042 | 25 | 109 | 0.0 | 0.0 | 0.00 | 0.00 | 0.00 | 86 | 1020.1 |
| 20260507033542 | 25 | 109 | 0.0 | 0.0 | 0.00 | 0.00 | 0.00 | 86 | 1020.0 |
| 20260507033044 | 25 | 109 | 0.0 | 0.0 | 0.00 | 0.00 | 0.00 | 86 | 1020.2 |
| 20260507032542 | 25 | 109 | 0.0 | 0.0 | 0.00 | 0.00 | 0.00 | 87 | 1020.0 |
| 20260507032044 | 25 | 109 | 0.0 | 0.0 | 0.00 | 0.00 | 0.00 | 87 | 1020.1 |
| 20260507031542 | 25 | 109 | 0.0 | 0.0 | 0.00 | 0.00 | 0.00 | 87 | 1020.1 |
| 20260507031042 | 25 | 109 | 0.0 | 0.0 | 0.00 | 0.00 | 0.00 | 87 | 1020.2 |
| 20260507030542 | 25 | 109 | 0.0 | 0.0 | 0.00 | 0.00 | 0.00 | 87 | 1020.2 |
| 20260507030042 | 25 | 109 | 0.0 | 0.0 | 0.00 | 0.00 | 0.00 | 87 | 1020.1 |
| 20260507025541 | 24 | 109 | 0.0 | 0.0 | 0.00 | 0.00 | 0.00 | 87 | 1020.2 |
| 20260507025042 | 24 | 109 | 0.0 | 0.0 | 0.00 | 0.00 | 0.00 | 87 | 1020.3 |
| 20260507024541 | 25 | 109 | 0.0 | 0.0 | 0.00 | 0.00 | 0.00 | 87 | 1020.3 |
| 20260507024041 | 25 | 109 | 0.0 | 0.0 | 0.00 | 0.00 | 0.00 | 87 | 1020.3 |
| 20260507023540 | 25 | 109 | 0.0 | 0.0 | 0.00 | 0.00 | 0.00 | 87 | 1020.2 |
| 20260507023041 | 25 | 109 | 0.0 | 0.0 | 0.00 | 0.00 | 0.00 | 87 | 1020.2 |
| 20260507022540 | 25 | 109 | 0.0 | 0.0 | 0.00 | 0.00 | 0.00 | 87 | 1020.2 |
| 20260507022041 | 25 | 109 | 0.0 | 0.0 | 0.00 | 0.00 | 0.00 | 87 | 1020.1 |
| 20260507021545 | 25 | 109 | 0.0 | 0.0 | 0.00 | 0.00 | 0.00 | 87 | 1020.1 |
| 20260507021040 | 25 | 109 | 0.0 | 0.0 | 0.00 | 0.00 | 0.00 | 87 | 1020.2 |
| 20260507020540 | 25 | 109 | 0.0 | 0.0 | 0.00 | 0.00 | 0.00 | 87 | 1020.1 |
| 20260507020040 | 25 | 109 | 0.0 | 0.0 | 0.00 | 0.00 | 0.00 | 87 | 1020.1 |
| 20260507015539 | 25 | 109 | 0.0 | 0.0 | 0.00 | 0.00 | 0.00 | 87 | 1020.0 |
| 20260507015039 | 25 | 109 | 0.0 | 3.2 | 0.00 | 0.00 | 0.00 | 87 | 1020.0 |
| 20260507014553 | 25 | 109 | 0.0 | 4.8 | 0.00 | 0.00 | 0.00 | 86 | 1020.0 |
| 20260507014039 | 25 | 109 | 0.0 | 4.8 | 0.00 | 0.00 | 0.00 | 86 | 1020.0 |
| 20260507013538 | 25 | 109 | 0.0 | 0.0 | 0.00 | 0.00 | 0.00 | 86 | 1020.0 |
| 20260507013048 | 25 | 110 | 0.0 | 0.0 | 0.00 | 0.00 | 0.00 | 86 | 1019.8 |
| 20260507012538 | 25 | 110 | 0.0 | 6.4 | 0.00 | 0.00 | 0.00 | 85 | 1019.8 |
| 20260507012040 | 25 | 111 | 0.0 | 9.7 | 0.00 | 0.00 | 0.00 | 85 | 1019.8 |
| 20260507011541 | 25 | 109 | 1.6 | 6.4 | 0.00 | 0.00 | 0.00 | 85 | 1019.7 |
| 20260507011039 | 25 | 109 | 1.6 | 6.4 | 0.00 | 0.00 | 0.00 | 85 | 1019.7 |
| 20260507010538 | 25 | 110 | 1.6 | 6.4 | 0.00 | 0.00 | 0.00 | 84 | 1019.6 |
| 20260507010038 | 25 | 123 | 1.6 | 6.4 | 0.00 | 0.00 | 0.00 | 84 | 1019.6 |
| 20260507005537 | 25 | 99 | 1.6 | 9.7 | 0.00 | 0.00 | 0.00 | 84 | 1019.6 |
| 20260507005037 | 25 | 102 | 3.2 | 11.3 | 0.00 | 0.00 | 0.00 | 84 | 1019.5 |
| 20260507004538 | 25 | 62 | 3.2 | 11.3 | 0.00 | 0.00 | 0.00 | 84 | 1019.5 |
| 20260507004037 | 25 | 101 | 3.2 | 9.7 | 0.00 | 0.00 | 0.00 | 84 | 1019.5 |
| 20260507003536 | 25 | 85 | 1.6 | 6.4 | 0.00 | 0.00 | 0.00 | 83 | 1019.4 |